createdAt,value
2023-04-14T00:01:51.991Z,0
2023-04-14T00:05:17.317Z,0
2023-04-14T00:08:42.603Z,0
2023-04-14T00:12:07.949Z,0
2023-04-14T00:15:33.244Z,0
2023-04-14T00:18:58.837Z,0
2023-04-14T00:22:23.932Z,0
2023-04-14T00:25:49.258Z,0
2023-04-14T00:29:14.597Z,0
2023-04-14T00:32:39.890Z,0
2023-04-14T00:36:05.267Z,0
2023-04-14T00:39:30.634Z,0
2023-04-14T00:42:55.962Z,0
2023-04-14T00:46:21.363Z,0
2023-04-14T00:49:46.645Z,0
2023-04-14T00:53:11.988Z,0
2023-04-14T00:56:37.343Z,0
2023-04-14T01:00:02.708Z,0
2023-04-14T01:03:28.084Z,0
2023-04-14T01:06:53.309Z,0
2023-04-14T01:10:18.625Z,0
2023-04-14T01:13:43.953Z,0
2023-04-14T01:17:09.237Z,0
2023-04-14T01:20:34.601Z,0
2023-04-14T01:23:59.883Z,0
2023-04-14T01:27:25.196Z,0
2023-04-14T01:30:50.456Z,0
2023-04-14T01:34:15.810Z,0
2023-04-14T01:37:41.115Z,0
2023-04-14T01:41:06.379Z,0
2023-04-14T01:44:31.688Z,0
2023-04-14T01:47:57.013Z,0
2023-04-14T01:51:22.293Z,0
2023-04-14T01:54:47.650Z,0
2023-04-14T01:58:12.919Z,0
2023-04-14T02:01:38.266Z,0
2023-04-14T02:05:03.553Z,0
2023-04-14T02:08:28.877Z,0
2023-04-14T02:11:54.290Z,0
2023-04-14T02:15:19.548Z,0
2023-04-14T02:18:44.881Z,0
2023-04-14T02:22:10.188Z,0
2023-04-14T02:25:35.469Z,0
2023-04-14T02:29:00.952Z,0
2023-04-14T02:32:26.075Z,0
2023-04-14T02:35:51.314Z,0
2023-04-14T02:39:16.600Z,0
2023-04-14T02:42:41.886Z,0
2023-04-14T02:46:07.274Z,0
2023-04-14T02:49:32.470Z,0
2023-04-14T02:52:57.765Z,0
2023-04-14T02:56:22.996Z,0
2023-04-14T02:59:48.296Z,0
2023-04-14T03:03:13.722Z,0
2023-04-14T03:06:38.892Z,0
2023-04-14T03:10:04.238Z,0
2023-04-14T03:13:29.541Z,0
2023-04-14T03:16:54.831Z,0
2023-04-14T03:20:20.222Z,0
2023-04-14T03:23:45.408Z,0
2023-04-14T03:27:10.712Z,0
2023-04-14T03:30:35.982Z,0
2023-04-14T03:34:01.280Z,0
2023-04-14T03:37:26.601Z,0
2023-04-14T03:40:51.822Z,0
2023-04-14T03:44:17.089Z,0
2023-04-14T03:47:42.381Z,0
2023-04-14T03:51:07.665Z,0
2023-04-14T03:54:32.968Z,0
2023-04-14T03:57:58.191Z,0
2023-04-14T04:01:23.468Z,0
2023-04-14T04:04:48.780Z,1
2023-04-14T04:08:14.027Z,1
2023-04-14T04:11:39.331Z,1
2023-04-14T04:15:04.613Z,1
2023-04-14T04:18:29.896Z,1
2023-04-14T04:21:55.193Z,2
2023-04-14T04:25:20.493Z,4
2023-04-14T04:28:45.801Z,5
2023-04-14T04:32:11.137Z,6
2023-04-14T04:35:36.430Z,7
2023-04-14T04:39:01.921Z,10
2023-04-14T04:42:27.079Z,12
2023-04-14T04:45:52.746Z,15
2023-04-14T04:49:17.911Z,17
2023-04-14T04:52:43.209Z,19
2023-04-14T04:56:08.507Z,23
2023-04-14T04:59:34.356Z,28
2023-04-14T05:02:59.288Z,32
2023-04-14T05:06:24.358Z,35
2023-04-14T05:09:49.582Z,40
2023-04-14T05:13:14.792Z,46
2023-04-14T05:16:40.016Z,53
2023-04-14T05:20:05.242Z,59
2023-04-14T05:23:30.423Z,60
2023-04-14T05:27:12.148Z,67
2023-04-14T05:30:20.893Z,75
2023-04-14T05:33:46.082Z,77
2023-04-14T05:37:11.323Z,79
2023-04-14T05:40:36.551Z,83
2023-04-14T05:44:01.955Z,88
2023-04-14T05:47:26.994Z,95
2023-04-14T05:50:52.186Z,110
2023-04-14T05:54:17.499Z,122
2023-04-14T05:57:42.714Z,122
2023-04-14T06:01:07.954Z,120
2023-04-14T06:04:33.230Z,123
2023-04-14T06:07:58.408Z,126
2023-04-14T06:11:23.756Z,127
2023-04-14T06:14:49.020Z,132
2023-04-14T06:18:14.332Z,138
2023-04-14T06:21:39.658Z,149
2023-04-14T06:25:04.953Z,159
2023-04-14T06:28:30.284Z,166
2023-04-14T06:31:55.683Z,170
2023-04-14T06:35:32.208Z,172
2023-04-14T06:38:46.302Z,181
2023-04-14T06:42:11.620Z,198
2023-04-14T06:45:37.056Z,225
2023-04-14T06:49:02.617Z,247
2023-04-14T06:52:27.716Z,270
2023-04-14T06:55:53.049Z,299
2023-04-14T06:59:18.382Z,289
2023-04-14T07:02:43.767Z,269
2023-04-14T07:06:09.053Z,261
2023-04-14T07:09:34.439Z,266
2023-04-14T07:12:59.729Z,258
2023-04-14T07:16:25.111Z,267
2023-04-14T07:19:50.408Z,279
2023-04-14T07:23:15.733Z,278
2023-04-14T07:26:41.008Z,240
2023-04-14T07:30:06.368Z,222
2023-04-14T07:33:31.735Z,206
2023-04-14T07:36:57.144Z,163
2023-04-14T07:40:22.472Z,153
2023-04-14T07:43:47.825Z,195
2023-04-14T07:47:13.233Z,254
2023-04-14T07:50:38.605Z,257
2023-04-14T07:54:03.972Z,136
2023-04-14T07:57:29.247Z,79
2023-04-14T08:00:54.561Z,88
2023-04-14T08:04:19.924Z,116
2023-04-14T08:07:45.227Z,122
2023-04-14T08:11:10.641Z,90
2023-04-14T08:14:35.873Z,88
2023-04-14T08:18:01.142Z,166
2023-04-14T08:21:26.371Z,272
2023-04-14T08:24:51.612Z,362
2023-04-14T08:28:17.001Z,344
2023-04-14T08:31:42.264Z,385
2023-04-14T08:35:36.675Z,384
2023-04-14T08:38:32.736Z,282
2023-04-14T08:41:58.027Z,216
2023-04-14T08:45:23.435Z,254
2023-04-14T08:48:48.728Z,231
2023-04-14T08:52:13.993Z,253
2023-04-14T08:55:39.314Z,307
2023-04-14T08:59:04.725Z,216
2023-04-14T09:02:30.078Z,396
2023-04-14T09:05:55.277Z,406
2023-04-14T09:09:20.587Z,371
2023-04-14T09:12:45.920Z,400
2023-04-14T09:16:11.209Z,333
2023-04-14T09:19:36.620Z,302
2023-04-14T09:23:01.979Z,488
2023-04-14T09:26:27.390Z,610
2023-04-14T09:29:52.766Z,638
2023-04-14T09:33:18.253Z,606
2023-04-14T09:36:43.603Z,584
2023-04-14T09:40:08.954Z,562
2023-04-14T09:43:34.509Z,512
2023-04-14T09:46:59.885Z,593
2023-04-14T09:50:25.286Z,598
2023-04-14T09:53:50.735Z,568
2023-04-14T09:57:16.118Z,579
2023-04-14T10:00:41.519Z,497
2023-04-14T10:04:06.879Z,459
2023-04-14T10:07:32.256Z,398
2023-04-14T10:10:57.618Z,401
2023-04-14T10:14:22.935Z,619
2023-04-14T10:17:48.314Z,556
2023-04-14T10:21:13.618Z,472
2023-04-14T10:24:38.932Z,362
2023-04-14T10:28:04.273Z,298
2023-04-14T10:31:29.655Z,288
2023-04-14T10:34:54.901Z,562
2023-04-14T10:38:20.253Z,577
2023-04-14T10:41:45.646Z,452
2023-04-14T10:45:11.079Z,228
2023-04-14T10:48:36.329Z,108
2023-04-14T10:52:01.645Z,46
2023-04-14T10:55:26.917Z,107
2023-04-14T10:58:52.211Z,225
2023-04-14T11:02:17.574Z,416
2023-04-14T11:05:42.844Z,482
2023-04-14T11:09:08.163Z,553
2023-04-14T11:12:33.463Z,606
2023-04-14T11:15:58.778Z,586
2023-04-14T11:19:24.272Z,546
2023-04-14T11:22:49.548Z,580
2023-04-14T11:26:19.915Z,537
2023-04-14T11:29:45.286Z,554
2023-04-14T11:33:10.629Z,565
2023-04-14T11:36:35.915Z,643
2023-04-14T11:40:01.147Z,544
2023-04-14T11:43:26.503Z,515
2023-04-14T11:46:52.412Z,636
2023-04-14T11:50:17.759Z,671
2023-04-14T11:53:43.118Z,634
2023-04-14T11:57:08.430Z,540
2023-04-14T12:00:33.656Z,378
2023-04-14T12:03:59.035Z,357
2023-04-14T12:07:24.173Z,569
2023-04-14T12:10:49.637Z,592
2023-04-14T12:14:14.853Z,637
2023-04-14T12:17:40.199Z,684
2023-04-14T12:21:06.363Z,311
2023-04-14T12:24:30.617Z,160
2023-04-14T12:27:57.177Z,97
2023-04-14T12:31:21.130Z,138
2023-04-14T12:34:46.536Z,291
2023-04-14T12:38:11.778Z,442
2023-04-14T12:41:37.048Z,531
2023-04-14T12:45:02.472Z,514
2023-04-14T12:48:27.834Z,564
2023-04-14T12:51:53.330Z,623
2023-04-14T12:55:18.710Z,672
2023-04-14T12:58:44.110Z,793
2023-04-14T13:02:09.533Z,550
2023-04-14T13:05:35.026Z,643
2023-04-14T13:09:00.735Z,653
2023-04-14T13:12:26.049Z,576
2023-04-14T13:16:11.888Z,607
2023-04-14T13:19:16.960Z,508
2023-04-14T13:22:42.565Z,456
2023-04-14T13:26:08.048Z,534
2023-04-14T13:29:33.605Z,616
2023-04-14T13:32:59.299Z,528
2023-04-14T13:36:24.977Z,280
2023-04-14T13:39:50.539Z,76
2023-04-14T13:43:16.091Z,44
2023-04-14T13:46:41.845Z,46
2023-04-14T13:50:07.301Z,200
2023-04-14T13:53:32.909Z,193
2023-04-14T13:56:58.506Z,117
2023-04-14T14:00:23.818Z,76
2023-04-14T14:03:49.315Z,64
2023-04-14T14:07:14.428Z,81
2023-04-14T14:10:39.726Z,119
2023-04-14T14:14:05.059Z,205
2023-04-14T14:17:30.353Z,293
2023-04-14T14:20:55.668Z,337
2023-04-14T14:24:21.095Z,364
2023-04-14T14:27:46.302Z,394
2023-04-14T14:31:11.637Z,322
2023-04-14T14:34:36.966Z,282
2023-04-14T14:38:02.312Z,341
2023-04-14T14:41:27.563Z,407
2023-04-14T14:44:52.878Z,401
2023-04-14T14:48:18.445Z,392
2023-04-14T14:51:43.762Z,364
2023-04-14T14:55:09.054Z,288
2023-04-14T14:58:34.367Z,270
2023-04-14T15:01:59.883Z,198
2023-04-14T15:05:25.039Z,214
2023-04-14T15:40:01.112Z,76
2023-04-14T15:43:26.473Z,72
2023-04-14T15:46:51.868Z,70
2023-04-14T15:50:18.849Z,188
2023-04-14T15:53:42.645Z,223
2023-04-14T15:57:08.082Z,219
2023-04-14T16:00:33.490Z,184
2023-04-14T16:03:58.893Z,116
2023-04-14T16:07:24.283Z,36
2023-04-14T16:10:49.669Z,14
2023-04-14T16:14:15.089Z,14
2023-04-14T16:17:40.458Z,12
2023-04-14T16:21:05.863Z,24
2023-04-14T16:24:31.748Z,32
2023-04-14T16:27:57.172Z,37
2023-04-14T16:31:22.717Z,29
2023-04-14T16:34:47.965Z,27
2023-04-14T16:38:13.339Z,56
2023-04-14T16:41:38.738Z,112
2023-04-14T16:45:04.450Z,126
2023-04-14T16:48:30.263Z,121
2023-04-14T16:51:55.910Z,109
2023-04-14T16:55:21.370Z,93
2023-04-14T16:58:48.805Z,82
2023-04-14T17:02:18.025Z,83
2023-04-14T17:05:44.459Z,78
2023-04-14T17:09:11.360Z,66
2023-04-14T17:12:37.865Z,59
2023-04-14T17:16:08.637Z,47
2023-04-14T17:19:33.359Z,38
2023-04-14T17:23:00.389Z,34
2023-04-14T17:26:28.017Z,30
2023-04-14T17:29:53.786Z,25
2023-04-14T17:33:19.563Z,23
2023-04-14T17:36:45.178Z,21
2023-04-14T17:40:10.901Z,17
2023-04-14T17:43:36.516Z,13
2023-04-14T17:47:03.067Z,12
2023-04-14T17:50:28.908Z,8
2023-04-14T17:53:54.691Z,6
2023-04-14T17:57:20.608Z,5
2023-04-14T18:00:46.308Z,6
2023-04-14T18:04:12.095Z,5
2023-04-14T18:07:37.798Z,3
2023-04-14T18:11:03.559Z,1
2023-04-14T18:14:29.289Z,1
2023-04-14T18:17:54.988Z,1
2023-04-14T18:21:20.749Z,1
2023-04-14T18:24:48.118Z,1
2023-04-14T18:28:12.164Z,0
2023-04-14T18:31:38.057Z,0
2023-04-14T18:35:03.541Z,0
2023-04-14T18:38:29.184Z,0
2023-04-14T18:41:54.744Z,0
2023-04-14T18:45:20.321Z,0
2023-04-14T18:48:45.709Z,0
2023-04-14T18:52:11.037Z,0
2023-04-14T18:55:37.112Z,0
2023-04-14T18:59:01.808Z,0
2023-04-14T19:02:27.157Z,0
2023-04-14T19:05:52.420Z,0
2023-04-14T19:09:17.759Z,0
2023-04-14T19:12:43.111Z,0
2023-04-14T19:16:08.566Z,0
2023-04-14T19:19:33.821Z,0
2023-04-14T19:22:59.216Z,0
2023-04-14T19:26:24.509Z,0
2023-04-14T19:29:49.855Z,0
2023-04-14T19:33:15.246Z,0
2023-04-14T19:36:40.577Z,0
2023-04-14T19:40:05.943Z,0
2023-04-14T19:43:31.281Z,0
2023-04-14T19:46:56.671Z,0
2023-04-14T19:50:22.021Z,0
2023-04-14T19:53:47.356Z,0
2023-04-14T19:57:12.734Z,0
2023-04-14T20:00:38.193Z,0
2023-04-14T20:04:05.446Z,0
2023-04-14T20:07:28.630Z,0
2023-04-14T20:10:53.844Z,0
2023-04-14T20:14:19.077Z,0
2023-04-14T20:17:44.373Z,0
2023-04-14T20:21:10.880Z,0
2023-04-14T20:24:36.095Z,0
2023-04-14T20:28:01.312Z,0
2023-04-14T20:31:26.602Z,0
2023-04-14T20:34:51.756Z,0
2023-04-14T20:38:16.976Z,0
2023-04-14T20:41:42.215Z,0
2023-04-14T20:45:07.418Z,0
2023-04-14T20:48:32.635Z,0
2023-04-14T20:51:57.825Z,0
2023-04-14T20:55:23.051Z,0
2023-04-14T20:58:48.243Z,0
2023-04-14T21:02:13.513Z,0
2023-04-14T21:05:38.704Z,0
2023-04-14T21:09:04.751Z,0
2023-04-14T21:12:31.013Z,0
2023-04-14T21:15:55.771Z,0
2023-04-14T21:19:20.270Z,0
2023-04-14T21:22:45.500Z,0
2023-04-14T21:26:10.677Z,0
2023-04-14T21:29:35.886Z,0
2023-04-14T21:33:01.120Z,0
2023-04-14T21:36:26.324Z,0
2023-04-14T21:39:51.626Z,0
2023-04-14T21:43:16.775Z,0
2023-04-14T21:46:42.013Z,0
2023-04-14T21:50:10.674Z,0
2023-04-14T21:53:35.921Z,0
2023-04-14T21:57:01.173Z,0
2023-04-14T22:00:26.363Z,0
2023-04-14T22:03:51.635Z,0
2023-04-14T22:07:16.773Z,0
2023-04-14T22:10:41.969Z,0
2023-04-14T22:14:07.224Z,0
2023-04-14T22:17:32.440Z,0
2023-04-14T22:20:57.615Z,0
2023-04-14T22:24:22.835Z,0
2023-04-14T22:27:48.034Z,0
2023-04-14T22:31:13.311Z,0
2023-04-14T22:34:38.487Z,0
2023-04-14T22:38:03.695Z,0
2023-04-14T22:41:28.903Z,0
2023-04-14T22:44:54.110Z,0
2023-04-14T22:48:19.353Z,0
2023-04-14T22:51:44.510Z,0
2023-04-14T22:55:09.701Z,0
2023-04-14T22:58:34.909Z,0
2023-04-14T23:02:00.428Z,0
2023-04-14T23:05:25.595Z,0
2023-04-14T23:08:50.856Z,0
2023-04-14T23:12:15.978Z,0
2023-04-14T23:15:41.217Z,0
2023-04-14T23:19:06.419Z,0
2023-04-14T23:22:31.656Z,0
2023-04-14T23:25:56.842Z,0
2023-04-14T23:29:22.035Z,0
2023-04-14T23:32:47.231Z,0
2023-04-14T23:36:12.419Z,0
2023-04-14T23:39:37.680Z,0
2023-04-14T23:43:02.854Z,0
2023-04-14T23:46:28.056Z,0
2023-04-14T23:49:53.272Z,0
2023-04-14T23:53:18.483Z,0
2023-04-14T23:56:43.687Z,0
